Time;durP1;ratioP1;P1;durP2;ratioP2;P2;SDS_P1;SDS_P2;PMS_P1;PMS_P2;Temp;Humidity;BMP_temperature;BMP_pressure;BME280_temperature;BME280_humidity;BME280_pressure;Samples;Min_cycle;Max_cycle;Signal;HPM_P1;HPM_P2
2022/01/02 00:00:25;;;;;;;43.33;13.18;;;11.00;99.90;;;9.62;100.00;101219.59;6179127;23;20082;-81
2022/01/02 00:02:58;;;;;;;38.45;12.77;;;11.00;99.90;;;9.62;100.00;101208.22;6062884;23;20064;-82
2022/01/02 00:05:24;;;;;;;39.38;12.15;;;10.90;99.90;;;9.59;100.00;101185.53;6076002;23;20021;-82
2022/01/02 00:08:01;;;;;;;33.67;12.48;;;11.00;99.90;;;9.59;100.00;101182.91;6094938;23;20562;-82
2022/01/02 00:10:48;;;;;;;35.47;12.35;;;10.90;99.90;;;9.62;100.00;101171.41;6121678;23;20035;-84
2022/01/02 00:13:24;;;;;;;33.97;12.70;;;10.90;99.90;;;9.60;100.00;101168.81;6173317;23;20008;-76
2022/01/02 00:15:52;;;;;;;41.75;12.65;;;10.90;99.90;;;9.58;100.00;101170.66;6184779;23;20074;-77
2022/01/02 00:18:20;;;;;;;27.17;11.88;;;10.90;99.90;;;9.55;100.00;101188.31;6186544;23;20001;-78
2022/01/02 00:20:48;;;;;;;22.20;11.50;;;10.90;99.90;;;9.57;100.00;101191.75;6175022;23;20367;-77
2022/01/02 00:23:21;;;;;;;26.35;11.75;;;10.90;99.90;;;9.57;100.00;101189.13;6147455;23;20031;-78
2022/01/02 00:25:54;;;;;;;32.03;11.30;;;10.90;99.90;;;9.56;100.00;101187.41;6172383;23;20024;-77
2022/01/02 00:28:20;;;;;;;34.97;12.13;;;10.90;99.90;;;9.57;100.00;101202.28;6172442;23;20015;-77
2022/01/02 00:30:48;;;;;;;27.48;10.73;;;10.90;99.90;;;9.54;100.00;101192.69;6173802;23;20024;-77
2022/01/02 00:33:20;;;;;;;31.95;11.43;;;10.90;99.90;;;9.57;100.00;101192.59;6172491;23;20005;-78
2022/01/02 00:35:47;;;;;;;36.45;11.27;;;10.90;99.90;;;9.57;100.00;101178.63;6185044;23;20010;-77
2022/01/02 00:38:21;;;;;;;30.63;10.65;;;10.90;99.90;;;9.58;100.00;101169.78;6191852;23;20016;-77
2022/01/02 00:40:52;;;;;;;35.95;10.73;;;10.90;99.90;;;9.55;100.00;101155.00;6159977;23;20457;-77
2022/01/02 00:44:22;;;;;;;31.27;10.73;;;10.80;99.90;;;9.53;100.00;101148.94;6159265;23;20012;-77
2022/01/02 00:47:10;;;;;;;25.35;9.43;;;10.80;99.90;;;9.52;100.00;101128.78;6113443;23;20017;-77
2022/01/02 00:49:45;;;;;;;33.13;10.15;;;10.80;99.90;;;9.51;100.00;101253.28;6171604;23;20607;-77
2022/01/02 00:52:17;;;;;;;30.70;9.25;;;10.80;99.90;;;9.49;100.00;101147.31;6173620;23;20013;-78
2022/01/02 00:54:46;;;;;;;26.40;9.40;;;10.80;99.90;;;9.51;100.00;101056.13;6161215;23;20328;-77
2022/01/02 00:57:17;;;;;;;28.30;9.00;;;10.80;99.90;;;9.53;100.00;101064.81;6113670;23;20015;-78
2022/01/02 01:00:04;;;;;;;21.90;8.20;;;10.80;99.90;;;9.55;100.00;101086.66;6184400;23;19997;-77
2022/01/02 01:02:57;;;;;;;30.45;7.60;;;10.80;99.90;;;9.53;100.00;101113.91;6164002;23;20364;-78
2022/01/02 01:05:33;;;;;;;24.23;8.13;;;10.80;99.90;;;9.54;100.00;101094.56;6184994;23;20658;-77
2022/01/02 01:08:06;;;;;;;21.48;7.10;;;10.80;99.90;;;9.53;100.00;101104.25;6149596;23;20007;-77
2022/01/02 01:10:38;;;;;;;16.35;6.70;;;10.80;99.90;;;9.55;100.00;101102.41;6135899;23;20012;-77
2022/01/02 01:13:08;;;;;;;24.92;6.68;;;10.90;99.90;;;9.59;100.00;101103.13;6157889;23;20011;-78
2022/01/02 01:15:36;;;;;;;17.23;6.85;;;10.90;99.90;;;9.60;100.00;101053.13;6128236;23;20001;-77
2022/01/02 01:18:03;;;;;;;17.65;6.68;;;10.90;99.90;;;9.64;100.00;101109.09;6168794;23;20008;-77
2022/01/02 01:20:35;;;;;;;17.67;6.45;;;11.00;99.90;;;9.67;100.00;101098.47;6159114;23;20005;-78
2022/01/02 01:23:01;;;;;;;18.48;7.05;;;11.00;99.90;;;9.68;100.00;101091.47;6172060;23;20027;-77
2022/01/02 01:25:27;;;;;;;20.83;6.88;;;11.00;99.90;;;9.71;100.00;101104.47;6173675;23;20040;-78
2022/01/02 01:27:54;;;;;;;17.45;6.05;;;11.00;99.90;;;9.72;100.00;101103.56;6166218;23;20458;-77
2022/01/02 01:30:24;;;;;;;18.35;6.70;;;11.00;99.90;;;9.72;100.00;101096.53;6170117;23;20008;-77
2022/01/02 01:32:52;;;;;;;17.85;6.30;;;11.00;99.90;;;9.72;100.00;101093.91;6124728;23;20066;-78
2022/01/02 01:35:19;;;;;;;15.80;5.82;;;11.10;99.90;;;9.75;100.00;101082.41;6186182;23;20076;-77
2022/01/02 01:37:45;;;;;;;15.73;5.53;;;11.10;99.90;;;9.77;100.00;101083.22;6151594;23;20067;-78
2022/01/02 01:40:13;;;;;;;18.02;6.25;;;11.10;99.90;;;9.78;100.00;101082.28;6138212;23;20009;-78
2022/01/02 01:42:43;;;;;;;20.83;5.60;;;11.10;99.90;;;9.77;100.00;101065.66;6104339;23;20005;-78
2022/01/02 01:48:06;;;;;;;18.35;5.85;;;11.10;99.90;;;9.75;100.00;101061.38;6139683;23;20015;-78
2022/01/02 01:50:42;;;;;;;15.15;5.70;;;11.10;99.90;;;9.72;100.00;101067.63;6160839;23;20005;-78
2022/01/02 01:53:10;;;;;;;20.42;5.78;;;11.10;99.90;;;9.71;100.00;101051.88;6148290;23;20004;-78
2022/01/02 01:55:38;;;;;;;15.93;5.43;;;11.00;99.90;;;9.71;100.00;101057.16;6137986;23;20016;-77
2022/01/02 01:58:06;;;;;;;10.85;5.15;;;11.00;99.90;;;9.70;100.00;101050.16;6161512;23;20343;-78
2022/01/02 02:00:34;;;;;;;20.65;5.45;;;11.00;99.90;;;9.71;100.00;101036.97;6101763;23;20013;-77
2022/01/02 02:03:00;;;;;;;15.05;5.40;;;11.00;99.90;;;9.69;100.00;101033.53;6138722;23;20004;-78
2022/01/02 02:05:26;;;;;;;15.20;5.65;;;11.00;99.90;;;9.71;100.00;101028.22;6126705;23;20044;-77
2022/01/02 02:07:52;;;;;;;16.75;5.00;;;11.10;99.90;;;9.74;100.00;101022.84;6136198;23;20076;-77
2022/01/02 02:10:25;;;;;;;13.63;5.35;;;11.10;99.90;;;9.73;100.00;101021.13;6088220;23;20078;-77
2022/01/02 02:12:56;;;;;;;17.45;6.00;;;11.00;99.90;;;9.73;100.00;101010.63;6124900;23;20029;-77
2022/01/02 02:15:24;;;;;;;25.92;6.47;;;11.00;99.90;;;9.71;100.00;101001.94;6171789;23;20009;-77
2022/01/02 02:17:52;;;;;;;10.02;5.60;;;11.00;99.90;;;9.64;100.00;100999.53;6161701;23;20005;-77
2022/01/02 02:20:29;;;;;;;21.88;6.53;;;11.00;99.90;;;9.63;100.00;101010.97;6151188;23;20094;-78
2022/01/02 02:22:59;;;;;;;19.90;7.13;;;10.90;99.90;;;9.60;100.00;101007.59;6151836;23;20016;-78
2022/01/02 02:25:32;;;;;;;22.08;6.38;;;10.80;99.90;;;9.56;100.00;100993.69;6134140;23;20015;-77
2022/01/02 02:28:02;;;;;;;19.48;6.28;;;10.90;99.90;;;9.54;100.00;100992.06;6186430;23;20012;-78
2022/01/02 02:30:33;;;;;;;23.45;7.53;;;10.80;99.90;;;9.54;100.00;100990.28;6161503;23;20012;-77
2022/01/02 02:33:02;;;;;;;15.93;6.18;;;10.80;99.90;;;9.52;100.00;100983.38;6110903;23;20075;-77
2022/01/02 02:35:32;;;;;;;19.67;5.85;;;10.80;99.90;;;9.52;100.00;100986.00;6136473;23;20056;-77
2022/01/02 02:37:59;;;;;;;17.42;5.88;;;10.80;99.90;;;9.47;100.00;100983.53;6162710;23;20020;-77
2022/01/02 02:40:29;;;;;;;22.48;6.22;;;10.80;99.90;;;9.43;100.00;100985.44;6140866;23;20056;-77
2022/01/02 02:43:04;;;;;;;15.10;6.03;;;10.80;99.90;;;9.45;100.00;100974.88;6161285;23;20012;-77
2022/01/02 02:51:21;;;;;;;20.75;5.70;;;10.70;99.90;;;9.33;100.00;100970.94;6173137;23;20039;-77
2022/01/02 02:53:50;;;;;;;13.75;5.53;;;10.70;99.90;;;9.31;100.00;100966.63;6186808;23;20024;-78
2022/01/02 02:56:24;;;;;;;19.67;5.90;;;10.60;99.90;;;9.29;100.00;100968.47;6147252;23;20004;-77
2022/01/02 02:58:58;;;;;;;14.85;5.50;;;10.60;99.90;;;9.29;100.00;100947.44;6146571;23;22622;-77
2022/01/02 03:01:28;;;;;;;18.65;5.95;;;10.60;99.90;;;9.28;100.00;100951.84;6161645;23;20001;-77
2022/01/02 03:03:54;;;;;;;19.10;5.30;;;10.60;99.90;;;9.29;100.00;100958.81;6150235;23;20001;-77
2022/01/02 03:06:21;;;;;;;13.63;5.57;;;10.60;99.90;;;9.29;100.00;100948.31;6174316;23;20016;-77
2022/01/02 03:08:48;;;;;;;17.55;6.10;;;10.60;99.90;;;9.29;100.00;100950.94;6151819;23;20004;-77
2022/01/02 03:11:19;;;;;;;20.52;5.57;;;10.60;99.90;;;9.27;100.00;100959.81;6160508;23;20031;-78
2022/01/02 03:13:49;;;;;;;17.35;5.50;;;10.60;99.90;;;9.24;100.00;100948.50;6146598;23;20011;-77
2022/01/02 03:16:17;;;;;;;16.67;5.00;;;10.60;99.90;;;9.23;100.00;100935.41;6135264;23;19997;-77
2022/01/02 03:18:43;;;;;;;15.15;5.32;;;10.60;99.90;;;9.26;100.00;100929.16;6163345;23;20008;-78
2022/01/02 03:21:10;;;;;;;15.20;5.20;;;10.60;99.90;;;9.26;100.00;100922.13;6190188;23;20016;-77
2022/01/02 03:23:37;;;;;;;11.32;5.15;;;10.60;99.90;;;9.26;100.00;100913.41;6160918;23;20000;-77
2022/01/02 03:26:05;;;;;;;14.43;5.07;;;10.60;99.90;;;9.24;100.00;100909.06;6149015;23;20112;-77
2022/01/02 03:28:31;;;;;;;11.15;4.57;;;10.60;99.90;;;9.24;100.00;100909.06;6150334;23;20016;-78
2022/01/02 03:30:57;;;;;;;12.70;5.22;;;10.60;99.90;;;9.24;100.00;100916.97;6174609;23;20020;-77
2022/01/02 03:33:23;;;;;;;12.60;4.07;;;10.60;99.90;;;9.24;100.00;100922.22;6158619;23;20451;-77
2022/01/02 03:35:49;;;;;;;16.60;4.65;;;10.60;99.90;;;9.27;100.00;100923.00;6159269;23;20462;-78
2022/01/02 03:38:17;;;;;;;16.42;4.50;;;10.60;99.90;;;9.26;100.00;100906.38;6118295;23;20079;-77
2022/01/02 03:40:44;;;;;;;24.00;4.90;;;10.60;99.90;;;9.28;100.00;100916.84;6186981;23;21487;-77
2022/01/02 03:43:10;;;;;;;12.25;4.60;;;10.60;99.90;;;9.29;100.00;100900.13;6186076;23;20009;-77
2022/01/02 03:45:36;;;;;;;18.98;4.50;;;10.60;99.90;;;9.29;100.00;100905.38;6185976;23;20009;-78
2022/01/02 03:48:02;;;;;;;15.77;4.72;;;10.60;99.90;;;9.27;100.00;100894.97;6188252;23;20009;-77
2022/01/02 03:50:28;;;;;;;14.73;4.43;;;10.60;99.90;;;9.30;100.00;100884.31;6160807;23;20009;-77
2022/01/02 03:52:54;;;;;;;21.92;4.38;;;10.60;99.90;;;9.29;100.00;100894.88;6173018;23;20028;-77
2022/01/02 03:55:21;;;;;;;13.32;4.35;;;10.60;99.90;;;9.31;100.00;100890.41;6128669;23;22213;-77
2022/01/02 03:57:48;;;;;;;10.13;4.20;;;10.70;99.90;;;9.30;100.00;100883.47;6183884;23;20067;-77
2022/01/02 04:00:15;;;;;;;12.32;3.78;;;10.60;99.90;;;9.30;100.00;100884.31;6161800;23;20004;-77
2022/01/02 04:02:43;;;;;;;12.30;3.90;;;10.60;99.90;;;9.31;100.00;100866.78;6164664;23;20020;-77
2022/01/02 04:05:12;;;;;;;13.38;4.55;;;10.60;99.90;;;9.29;100.00;100865.97;6182653;23;20489;-77
2022/01/02 04:07:39;;;;;;;14.85;4.63;;;10.60;99.90;;;9.27;100.00;100863.44;6201564;23;20016;-77
2022/01/02 04:10:09;;;;;;;10.27;4.50;;;10.60;99.90;;;9.28;100.00;100857.25;6174708;23;20020;-77
2022/01/02 04:12:37;;;;;;;15.13;4.82;;;10.60;99.90;;;9.25;100.00;100846.88;6184971;23;20054;-77
2022/01/02 04:15:07;;;;;;;13.45;4.30;;;10.60;99.90;;;9.26;100.00;100843.31;6161436;23;20021;-77
2022/01/02 04:17:34;;;;;;;15.75;4.53;;;10.60;99.90;;;9.26;100.00;100832.78;6173950;23;20108;-77
2022/01/02 04:20:05;;;;;;;10.50;4.53;;;10.60;99.90;;;9.24;100.00;100825.00;6123128;23;20004;-77
2022/01/02 04:22:35;;;;;;;13.30;4.75;;;10.60;99.90;;;9.27;100.00;100823.16;6135774;23;20325;-77
2022/01/02 04:25:01;;;;;;;11.40;4.38;;;10.60;99.90;;;9.26;100.00;100830.16;6173232;23;20016;-77
2022/01/02 04:27:27;;;;;;;9.90;4.20;;;10.60;99.90;;;9.25;100.00;100817.97;6149771;23;20599;-77
2022/01/02 04:29:52;;;;;;;11.57;4.65;;;10.60;99.90;;;9.27;100.00;100820.53;6146657;23;20024;-77
2022/01/02 04:32:19;;;;;;;14.15;3.83;;;10.60;99.90;;;9.27;100.00;100833.69;6159454;23;20001;-77
2022/01/02 04:34:45;;;;;;;14.55;4.32;;;10.60;99.90;;;9.30;100.00;100849.31;6164992;23;20484;-78
2022/01/02 04:37:15;;;;;;;14.90;5.60;;;10.60;99.90;;;9.30;100.00;100858.03;6165793;23;20066;-77
2022/01/02 04:39:41;;;;;;;10.20;3.90;;;10.60;99.90;;;9.30;100.00;100865.06;6172583;23;20474;-77
2022/01/02 04:42:08;;;;;;;12.55;4.55;;;10.60;99.90;;;9.30;100.00;100862.44;6175314;23;20015;-78
2022/01/02 04:44:34;;;;;;;9.75;4.43;;;10.60;99.90;;;9.34;100.00;100858.78;6136789;23;20019;-77
2022/01/02 04:47:01;;;;;;;15.00;4.40;;;10.70;99.90;;;9.34;100.00;100854.38;6158959;23;20005;-77
2022/01/02 04:49:27;;;;;;;13.95;4.57;;;10.80;99.90;;;9.34;100.00;100840.41;6134408;23;20051;-77
2022/01/02 04:51:54;;;;;;;14.02;4.53;;;10.60;99.90;;;9.33;100.00;100833.41;6132895;23;20008;-78
2022/01/02 04:54:21;;;;;;;9.88;4.18;;;10.60;99.90;;;9.36;100.00;100764.97;6136237;23;20018;-78
2022/01/02 04:56:48;;;;;;;20.02;4.82;;;10.70;99.90;;;9.33;100.00;100789.63;6096463;23;20008;-78
2022/01/02 04:59:14;;;;;;;17.98;4.95;;;10.60;99.90;;;9.29;100.00;100810.78;6114939;23;20001;-79
2022/01/02 05:01:40;;;;;;;12.93;4.70;;;10.60;99.90;;;9.29;100.00;100792.41;6174995;23;20035;-78
2022/01/02 05:04:06;;;;;;;17.60;4.95;;;10.70;99.90;;;9.26;100.00;100787.28;6140638;23;20024;-78
2022/01/02 05:06:35;;;;;;;18.00;5.45;;;10.60;99.90;;;9.21;100.00;100769.94;6186460;23;20139;-78
2022/01/02 05:09:01;;;;;;;12.25;5.07;;;10.60;99.90;;;9.19;100.00;100758.63;6186511;23;20464;-78
2022/01/02 05:11:28;;;;;;;15.90;4.57;;;10.60;99.90;;;9.19;100.00;100748.13;6130185;23;20000;-78
2022/01/02 05:13:53;;;;;;;24.45;7.55;;;10.60;99.90;;;9.21;100.00;100761.19;6133031;23;20001;-77
2022/01/02 05:16:19;;;;;;;14.43;5.07;;;10.50;99.90;;;9.16;100.00;100761.38;6148252;23;19997;-78
2022/01/02 05:18:45;;;;;;;16.73;5.72;;;10.50;99.90;;;9.13;100.00;100753.63;6185508;23;19997;-78
2022/01/02 05:21:13;;;;;;;18.90;5.80;;;10.50;99.90;;;9.10;100.00;100742.41;6160461;23;20036;-78
2022/01/02 05:23:41;;;;;;;24.40;5.50;;;10.50;99.90;;;9.08;100.00;100742.44;6173649;23;20067;-78
2022/01/02 05:26:07;;;;;;;15.57;6.03;;;10.50;99.90;;;9.04;100.00;100731.19;6188415;23;20032;-78
2022/01/02 05:28:32;;;;;;;19.80;6.03;;;10.40;99.90;;;9.02;100.00;100729.56;6138927;23;20005;-78
2022/01/02 05:30:58;;;;;;;20.75;6.35;;;10.40;99.90;;;9.00;100.00;100731.38;6173508;23;20001;-77
2022/01/02 05:33:24;;;;;;;18.27;6.60;;;10.40;99.90;;;8.99;100.00;100738.41;6148024;23;20036;-78
2022/01/02 05:35:52;;;;;;;18.15;6.63;;;10.30;99.90;;;8.97;100.00;100729.75;6184281;23;20075;-77
2022/01/02 05:38:19;;;;;;;18.40;6.22;;;10.30;99.90;;;8.94;100.00;100721.13;6147712;23;20024;-78
2022/01/02 05:40:46;;;;;;;15.50;6.32;;;10.30;99.90;;;8.94;100.00;100718.50;6172800;23;20001;-77
2022/01/02 05:43:14;;;;;;;14.85;6.00;;;10.30;99.90;;;8.93;100.00;100722.06;6158906;23;20013;-78
2022/01/02 05:45:40;;;;;;;21.45;6.85;;;10.30;99.90;;;8.91;100.00;100716.00;6186351;23;20023;-78
2022/01/02 05:48:06;;;;;;;15.43;6.18;;;10.30;99.90;;;8.91;100.00;100716.00;6185311;23;20013;-77
2022/01/02 05:50:32;;;;;;;18.55;6.85;;;10.30;99.90;;;8.90;100.00;100714.28;6159998;23;20009;-78
2022/01/02 05:52:58;;;;;;;15.02;6.65;;;10.30;99.90;;;8.90;100.00;100704.66;6148115;23;20019;-79
2022/01/02 05:55:24;;;;;;;27.23;7.30;;;10.30;99.90;;;8.89;100.00;100704.69;6133783;23;20008;-78
2022/01/02 05:57:50;;;;;;;17.08;6.95;;;10.30;99.90;;;8.92;100.00;100691.44;6136575;23;20007;-78
2022/01/02 06:00:16;;;;;;;19.50;7.18;;;10.30;99.90;;;8.92;100.00;100691.44;6185097;23;20001;-78
2022/01/02 06:02:42;;;;;;;22.38;8.13;;;10.30;99.90;;;8.90;100.00;100688.03;6174127;23;20054;-78
2022/01/02 06:05:08;;;;;;;17.33;7.32;;;10.30;99.90;;;8.93;100.00;100714.19;6185856;23;20013;-78
2022/01/02 06:07:34;;;;;;;15.25;7.88;;;10.30;99.90;;;8.95;100.00;100707.09;6148996;23;20025;-78
2022/01/02 06:10:04;;;;;;;31.98;7.93;;;10.30;99.90;;;8.94;100.00;100693.13;6146352;23;20000;-78
2022/01/02 06:12:31;;;;;;;20.10;7.88;;;10.30;99.90;;;8.94;100.00;100690.47;6187104;23;20062;-78
2022/01/02 06:14:57;;;;;;;21.80;8.20;;;;;;;8.95;100.00;100686.94;6160071;23;20013;-78
2022/01/02 06:17:23;;;;;;;19.98;7.63;;;10.30;99.90;;;8.97;100.00;100685.09;6164923;23;20005;-78
2022/01/02 06:19:49;;;;;;;21.10;7.40;;;10.30;99.90;;;8.98;100.00;100680.69;6187401;23;20007;-77
2022/01/02 06:22:16;;;;;;;19.20;8.13;;;10.30;99.90;;;8.98;100.00;100672.81;6173993;23;20075;-78
2022/01/02 06:24:44;;;;;;;18.80;8.18;;;10.30;99.90;;;8.96;100.00;100665.03;6150358;23;20552;-77
2022/01/02 06:27:10;;;;;;;21.40;9.35;;;10.30;99.90;;;8.94;100.00;100653.72;6149176;23;20084;-78
2022/01/02 06:29:36;;;;;;;19.27;8.50;;;10.30;99.90;;;8.91;100.00;100664.34;6141514;23;20091;-77
2022/01/02 06:32:02;;;;;;;23.25;9.02;;;10.30;99.90;;;8.91;100.00;100695.00;6190325;23;20336;-78
2022/01/02 06:34:28;;;;;;;21.20;8.73;;;10.30;99.90;;;8.88;100.00;100692.50;6123964;23;20035;-79
2022/01/02 06:36:57;;;;;;;23.88;9.00;;;10.20;99.90;;;8.89;100.00;100689.78;6128235;23;20483;-78
2022/01/02 06:39:22;;;;;;;23.05;8.85;;;10.20;99.90;;;8.87;100.00;100685.53;6176935;23;20012;-78
2022/01/02 06:41:51;;;;;;;21.23;8.60;;;10.20;99.90;;;8.90;100.00;100677.50;6158637;23;20004;-79
2022/01/02 06:44:17;;;;;;;24.70;9.40;;;10.20;99.90;;;8.91;100.00;100664.34;6164762;23;20359;-79
2022/01/02 06:46:43;;;;;;;20.50;8.07;;;10.20;99.90;;;8.88;100.00;100667.09;6133213;23;20063;-79
2022/01/02 06:49:09;;;;;;;27.70;8.90;;;10.20;99.90;;;8.87;100.00;100660.13;6112071;23;19997;-79
2022/01/02 06:51:34;;;;;;;22.40;8.90;;;10.20;99.90;;;8.86;100.00;100649.69;6140859;23;20001;-79
2022/01/02 06:54:00;;;;;;;22.50;8.07;;;10.20;99.90;;;8.86;100.00;100655.78;6150548;23;20001;-79
2022/01/02 06:56:26;;;;;;;21.95;8.32;;;10.30;99.90;;;8.88;100.00;100661.00;6174671;23;20008;-79
2022/01/02 06:58:52;;;;;;;24.42;9.00;;;10.30;99.90;;;8.87;100.00;100652.25;6161660;23;20020;-79
2022/01/02 07:01:18;;;;;;;23.63;8.63;;;10.20;99.90;;;8.83;100.00;100641.03;6166729;23;20410;-79
2022/01/02 07:03:43;;;;;;;20.48;8.30;;;10.30;99.90;;;8.87;100.00;100630.38;6175100;23;20077;-78
2022/01/02 07:06:09;;;;;;;21.45;8.23;;;10.30;99.90;;;8.89;100.00;100625.94;6131167;23;20020;-78
2022/01/02 07:08:35;;;;;;;21.45;8.35;;;10.30;99.90;;;8.90;100.00;100625.00;6187255;23;20015;-78
2022/01/02 07:11:01;;;;;;;21.10;8.38;;;10.30;99.90;;;8.90;100.00;100618.00;6186626;23;20008;-78
2022/01/02 07:13:27;;;;;;;23.70;8.70;;;10.30;99.90;;;8.91;100.00;100613.59;6186414;23;20012;-78
2022/01/02 07:15:53;;;;;;;26.88;8.65;;;10.30;99.90;;;8.90;100.00;100615.38;6139947;23;20009;-78
2022/01/02 07:18:19;;;;;;;21.55;8.27;;;10.30;99.90;;;8.93;100.00;100603.88;6173298;23;20011;-78
2022/01/02 07:20:45;;;;;;;27.15;8.50;;;10.30;99.90;;;8.93;100.00;100612.59;6136659;23;20004;-78
2022/01/02 07:23:10;;;;;;;21.95;8.80;;;10.30;99.90;;;8.94;100.00;100598.56;6113133;23;20017;-79
2022/01/02 07:25:36;;;;;;;21.90;9.38;;;10.30;99.90;;;8.94;100.00;100608.19;6161935;23;20031;-78
2022/01/02 07:28:02;;;;;;;24.80;9.95;;;10.30;99.90;;;8.96;100.00;100614.25;6144373;23;20985;-78
2022/01/02 07:30:28;;;;;;;21.67;8.77;;;10.30;99.90;;;8.96;100.00;100588.88;6187522;23;20031;-78
2022/01/02 07:33:01;;;;;;;18.27;9.20;;;10.30;99.90;;;8.97;100.00;100592.34;6163856;23;20343;-78
2022/01/02 07:35:29;;;;;;;25.08;9.07;;;10.30;99.90;;;8.94;100.00;100581.94;6162012;23;20335;-79
2022/01/02 07:37:57;;;;;;;24.85;9.70;;;10.30;99.90;;;8.92;100.00;100578.53;6128080;23;20021;-78
2022/01/02 07:40:26;;;;;;;18.77;9.80;;;10.30;99.90;;;8.89;100.00;100576.03;6151254;23;20008;-79
2022/01/02 07:42:52;;;;;;;21.13;10.23;;;10.30;99.90;;;8.91;100.00;100571.56;6161108;23;20008;-78
2022/01/02 07:45:19;;;;;;;24.58;10.57;;;10.30;99.90;;;8.89;100.00;100581.28;6144233;23;20099;-80
2022/01/02 07:47:46;;;;;;;30.42;11.27;;;10.30;99.90;;;8.89;100.00;100589.16;6177761;23;20009;-79
2022/01/02 07:50:12;;;;;;;27.33;10.88;;;10.30;99.90;;;8.83;100.00;100574.50;6161360;23;20004;-84
2022/01/02 07:52:39;;;;;;;31.80;11.10;;;10.30;99.90;;;8.84;100.00;100570.97;6186722;23;20008;-79
2022/01/02 07:55:06;;;;;;;27.00;10.88;;;10.20;99.90;;;8.86;100.00;100573.56;6171722;23;20335;-79
2022/01/02 07:57:32;;;;;;;27.98;11.82;;;10.20;99.90;;;8.83;100.00;100575.38;6146613;23;20004;-80
2022/01/02 07:59:57;;;;;;;33.50;11.68;;;10.20;99.90;;;8.83;100.00;100569.25;6120962;23;20406;-79
2022/01/02 08:02:23;;;;;;;31.20;11.90;;;10.20;99.90;;;8.85;100.00;100584.97;6117954;23;20005;-79
2022/01/02 08:04:49;;;;;;;29.45;11.77;;;10.20;99.90;;;8.87;100.00;100572.63;6127057;23;20680;-78
2022/01/02 08:07:15;;;;;;;31.77;12.38;;;10.20;99.90;;;8.85;100.00;100569.22;6147412;23;20048;-79
2022/01/02 08:09:41;;;;;;;26.20;11.63;;;10.20;99.90;;;8.86;100.00;100577.03;6170725;23;20009;-78
2022/01/02 08:12:07;;;;;;;29.67;12.43;;;10.20;99.90;;;8.83;100.00;100557.00;6185755;23;20013;-78
2022/01/02 08:14:33;;;;;;;38.05;11.57;;;10.20;99.90;;;8.82;100.00;100560.53;6138145;23;20031;-79
2022/01/02 08:16:59;;;;;;;30.65;11.90;;;10.20;99.90;;;8.87;100.00;100554.25;6164604;23;20025;-79
2022/01/02 08:19:25;;;;;;;28.73;12.32;;;10.20;99.90;;;8.84;100.00;100547.34;6150842;23;20023;-79
2022/01/02 08:21:51;;;;;;;28.02;11.15;;;10.20;99.90;;;8.88;100.00;100543.69;6159460;23;20005;-77
2022/01/02 08:24:16;;;;;;;31.70;12.02;;;10.20;99.90;;;8.91;100.00;100545.31;6186638;23;19997;-79
2022/01/02 08:26:42;;;;;;;29.75;11.27;;;10.30;99.90;;;8.90;100.00;100546.22;6135629;23;20331;-81
2022/01/02 08:29:08;;;;;;;22.52;10.80;;;10.30;99.90;;;8.90;100.00;100539.22;6174358;23;20012;-80
2022/01/02 08:31:35;;;;;;;29.25;12.52;;;10.20;99.90;;;8.92;100.00;100549.63;6142420;23;20004;-80
2022/01/02 08:34:03;;;;;;;27.58;12.00;;;10.30;99.90;;;8.93;100.00;100532.97;6104271;23;20336;-81
2022/01/02 08:36:29;;;;;;;31.63;12.40;;;10.30;99.90;;;8.90;100.00;100536.59;6129541;23;20007;-82
2022/01/02 08:38:55;;;;;;;28.25;11.45;;;10.30;99.90;;;8.92;100.00;100519.00;6102497;23;20024;-81
2022/01/02 08:41:21;;;;;;;24.55;11.55;;;10.30;99.90;;;8.90;100.00;100530.47;6164935;23;19997;-83
2022/01/02 08:43:48;;;;;;;31.30;11.90;;;10.30;99.90;;;8.94;100.00;100532.94;6176213;23;20031;-81
2022/01/02 08:46:17;;;;;;;29.42;11.57;;;10.30;99.90;;;8.93;100.00;100533.81;6149131;23;20032;-82
2022/01/02 08:48:43;;;;;;;30.73;12.70;;;10.30;99.90;;;8.92;100.00;100532.13;6104602;23;20016;-82
2022/01/02 08:51:11;;;;;;;30.23;11.98;;;10.30;99.90;;;8.91;100.00;100533.03;6123968;23;20012;-81
2022/01/02 08:53:39;;;;;;;29.20;12.80;;;10.30;99.90;;;8.92;100.00;100545.25;6113038;23;20001;-82
2022/01/02 08:56:05;;;;;;;30.85;12.10;;;10.30;99.90;;;8.94;100.00;100574.94;6063110;23;20009;-82
2022/01/02 08:58:33;;;;;;;35.60;12.50;;;10.30;99.90;;;8.96;100.00;100562.59;6111190;23;20088;-80
2022/01/02 09:01:02;;;;;;;29.83;13.13;;;10.30;99.90;;;8.98;100.00;100552.84;6133836;23;20062;-81
2022/01/02 09:03:30;;;;;;;31.40;12.93;;;10.30;99.90;;;8.98;100.00;100580.91;6172745;23;20075;-81
2022/01/02 09:05:56;;;;;;;36.08;12.35;;;10.30;99.90;;;8.96;100.00;100570.47;6132727;23;20016;-80
2022/01/02 09:08:25;;;;;;;28.50;12.00;;;10.30;99.90;;;8.98;100.00;100533.63;6144706;23;20012;-81
2022/01/02 09:10:54;;;;;;;36.55;13.70;;;10.30;99.90;;;8.99;100.00;100541.44;6079417;23;20003;-81
2022/01/02 09:13:23;;;;;;;29.80;13.05;;;10.30;99.90;;;9.02;100.00;100524.69;6140897;23;20009;-81
2022/01/02 09:15:52;;;;;;;33.05;12.38;;;10.30;99.90;;;9.01;100.00;100505.47;6137726;23;19997;-81
2022/01/02 09:18:21;;;;;;;33.75;12.88;;;10.40;99.90;;;9.05;100.00;100511.44;6151538;23;20000;-81
2022/01/02 09:20:50;;;;;;;34.85;13.18;;;10.40;99.90;;;9.06;100.00;100512.28;6127645;23;20012;-82
2022/01/02 09:23:19;;;;;;;31.23;12.23;;;10.40;99.90;;;9.06;100.00;100510.50;6111866;23;20012;-81
2022/01/02 09:25:51;;;;;;;29.13;13.07;;;10.40;99.90;;;9.07;100.00;100503.47;6155055;23;20096;-80
2022/01/02 09:28:19;;;;;;;30.30;13.05;;;10.40;99.90;;;9.11;100.00;100505.06;6172388;23;20005;-81
2022/01/02 09:30:46;;;;;;;25.23;12.38;;;10.40;99.90;;;9.09;100.00;100494.59;6185415;23;20009;-81
2022/01/02 09:33:14;;;;;;;35.58;12.43;;;10.40;99.90;;;9.13;100.00;100488.31;6129333;23;20299;-81
2022/01/02 09:35:46;;;;;;;37.55;12.90;;;10.50;99.90;;;9.17;100.00;100489.88;6162614;23;20011;-81
2022/01/02 09:38:12;;;;;;;27.67;11.95;;;10.50;99.90;;;9.20;100.00;100481.88;6124883;23;20108;-81
2022/01/02 09:40:44;;;;;;;30.17;12.20;;;10.50;99.90;;;9.20;100.00;100475.75;6113243;23;20004;-81
2022/01/02 09:43:17;;;;;;;25.88;11.82;;;10.50;99.90;;;9.20;100.00;100470.50;6097444;23;20071;-81
2022/01/02 09:45:55;;;;;;;26.85;12.10;;;10.50;99.90;;;9.23;100.00;100481.72;6104378;23;20025;-81
2022/01/02 09:48:30;;;;;;;30.63;12.18;;;10.50;99.90;;;9.22;100.00;100471.28;6155879;23;20024;-82
2022/01/02 09:50:57;;;;;;;29.98;12.15;;;10.50;99.90;;;9.23;100.00;100458.06;6129882;23;20001;-81
2022/01/02 09:53:24;;;;;;;26.63;11.82;;;10.50;99.90;;;9.28;100.00;100460.50;6076842;23;20031;-81
2022/01/02 09:55:58;;;;;;;26.52;10.88;;;10.50;99.90;;;9.30;100.00;100455.19;6078311;23;20004;-81
2022/01/02 09:58:34;;;;;;;29.08;11.35;;;10.60;99.90;;;9.31;100.00;100462.13;6110822;23;20005;-81
2022/01/02 10:01:00;;;;;;;24.50;11.30;;;10.60;99.90;;;9.33;100.00;100447.13;6077897;23;20005;-81
2022/01/02 10:03:45;;;;;;;29.05;11.55;;;10.60;99.90;;;9.32;100.00;100448.09;6120665;23;20358;-83
2022/01/02 10:06:14;;;;;;;27.30;10.80;;;10.60;99.90;;;9.33;100.00;100434.88;6136768;23;20021;-82
2022/01/02 10:08:43;;;;;;;26.80;10.88;;;10.60;99.90;;;9.35;100.00;100440.03;6131827;23;20020;-82
2022/01/02 10:11:23;;;;;;;23.20;10.40;;;10.70;99.90;;;9.40;100.00;100430.19;6073837;23;20060;-83
2022/01/02 10:13:56;;;;;;;27.55;10.40;;;10.70;99.90;;;9.45;100.00;100386.13;6084717;23;20340;-81
2022/01/02 10:16:37;;;;;;;28.08;10.70;;;10.70;99.90;;;9.48;100.00;100399.16;6098794;23;20092;-82
2022/01/02 10:19:38;;;;;;;28.15;10.48;;;10.80;99.90;;;9.54;100.00;100435.63;6144074;23;20004;-83